createdAt,value
2023-05-18T00:02:05.041Z,13.40
2023-05-18T00:04:34.540Z,13.40
2023-05-18T00:07:06.861Z,13.30
2023-05-18T00:09:36.743Z,13.30
2023-05-18T00:12:05.513Z,13.30
2023-05-18T00:14:32.508Z,13.30
2023-05-18T00:17:01.776Z,13.30
2023-05-18T00:19:30.126Z,13.20
2023-05-18T00:21:57.621Z,13.20
2023-05-18T00:24:24.685Z,13.20
2023-05-18T00:26:51.552Z,13.20
2023-05-18T00:29:18.512Z,13.20
2023-05-18T00:31:46.908Z,13.10
2023-05-18T00:34:15.295Z,13.10
2023-05-18T00:36:42.956Z,13.10
2023-05-18T00:39:10.238Z,13.10
2023-05-18T00:41:37.382Z,13.00
2023-05-18T00:44:05.126Z,13.00
2023-05-18T00:46:32.686Z,12.90
2023-05-18T00:49:02.013Z,12.90
2023-05-18T00:51:29.691Z,12.90
2023-05-18T00:53:59.972Z,12.80
2023-05-18T00:56:27.142Z,12.80
2023-05-18T00:58:55.742Z,12.80
2023-05-18T01:01:29.265Z,12.80
2023-05-18T01:04:02.194Z,12.70
2023-05-18T01:06:37.671Z,12.70
2023-05-18T01:09:07.272Z,12.70
2023-05-18T01:12:00.189Z,12.70
2023-05-18T01:14:52.629Z,12.60
2023-05-18T01:17:50.913Z,12.50
2023-05-18T01:20:37.789Z,12.50
2023-05-18T01:23:42.618Z,12.50
2023-05-18T01:26:31.669Z,12.50
2023-05-18T01:29:02.708Z,12.40
2023-05-18T01:31:30.672Z,12.50
2023-05-18T01:33:57.875Z,12.40
2023-05-18T01:36:24.884Z,12.50
2023-05-18T01:38:55.322Z,12.50
2023-05-18T01:41:30.216Z,12.40
2023-05-18T01:44:22.991Z,12.40
2023-05-18T01:46:59.016Z,12.30
2023-05-18T01:49:53.503Z,12.30
2023-05-18T01:52:45.957Z,12.30
2023-05-18T01:55:15.119Z,12.20
2023-05-18T01:57:44.593Z,12.20
2023-05-18T02:00:12.750Z,12.30
2023-05-18T02:02:48.126Z,12.30
2023-05-18T02:05:17.767Z,12.20
2023-05-18T02:07:47.290Z,12.20
2023-05-18T02:10:14.824Z,12.20
2023-05-18T02:12:41.988Z,12.20
2023-05-18T02:15:09.945Z,12.10
2023-05-18T02:17:40.284Z,12.10
2023-05-18T02:20:08.236Z,12.10
2023-05-18T02:22:36.162Z,12.10
2023-05-18T02:25:05.078Z,12.10
2023-05-18T02:27:33.267Z,12.10
2023-05-18T02:30:00.171Z,12.20
2023-05-18T02:32:27.972Z,12.10
2023-05-18T02:34:54.874Z,12.10
2023-05-18T02:37:23.188Z,12.10
2023-05-18T02:39:50.703Z,12.10
2023-05-18T02:42:17.570Z,12.10
2023-05-18T02:44:44.371Z,12.10
2023-05-18T02:47:14.697Z,12.10
2023-05-18T02:49:41.634Z,12.10
2023-05-18T02:52:08.916Z,12.00
2023-05-18T02:54:36.001Z,12.00
2023-05-18T02:57:04.721Z,12.00
2023-05-18T02:59:40.857Z,11.90
2023-05-18T03:02:07.975Z,11.90
2023-05-18T03:04:34.925Z,11.90
2023-05-18T03:07:02.908Z,11.90
2023-05-18T03:09:30.139Z,11.80
2023-05-18T03:11:57.670Z,11.80
2023-05-18T03:14:25.537Z,11.80
2023-05-18T03:16:58.087Z,11.70
2023-05-18T03:19:27.052Z,11.80
2023-05-18T03:21:54.298Z,11.70
2023-05-18T03:24:21.419Z,11.80
2023-05-18T03:26:49.928Z,11.70
2023-05-18T03:29:16.982Z,11.70
2023-05-18T03:31:44.028Z,11.70
2023-05-18T03:34:12.519Z,11.70
2023-05-18T03:36:39.981Z,11.70
2023-05-18T03:39:07.577Z,11.60
2023-05-18T03:41:34.753Z,11.70
2023-05-18T03:44:02.644Z,11.60
2023-05-18T03:46:31.045Z,11.60
2023-05-18T03:48:58.346Z,11.60
2023-05-18T03:51:32.439Z,11.60
2023-05-18T03:54:00.649Z,11.60
2023-05-18T03:56:27.635Z,11.60
2023-05-18T03:58:54.483Z,11.60
2023-05-18T04:01:23.841Z,11.50
2023-05-18T04:03:51.704Z,11.50
2023-05-18T04:06:22.578Z,11.50
2023-05-18T04:08:50.232Z,11.50
2023-05-18T04:11:17.773Z,11.40
2023-05-18T04:13:44.701Z,11.40
2023-05-18T04:16:13.489Z,11.50
2023-05-18T04:18:41.950Z,11.40
2023-05-18T04:21:09.563Z,11.40
2023-05-18T04:23:40.760Z,11.40
2023-05-18T04:26:09.110Z,11.40
2023-05-18T04:28:37.640Z,11.40
2023-05-18T04:31:04.693Z,11.40
2023-05-18T04:33:32.659Z,11.30
2023-05-18T04:36:04.958Z,11.40
2023-05-18T04:38:34.720Z,11.30
2023-05-18T04:41:06.651Z,11.30
2023-05-18T04:43:33.696Z,11.30
2023-05-18T04:46:00.632Z,11.40
2023-05-18T04:48:29.348Z,11.40
2023-05-18T04:50:56.254Z,11.40
2023-05-18T04:53:23.082Z,11.50
2023-05-18T04:55:50.650Z,11.50
2023-05-18T04:58:17.910Z,11.50
2023-05-18T05:00:44.870Z,11.50
2023-05-18T05:03:11.863Z,11.50
2023-05-18T05:05:38.763Z,11.60
2023-05-18T05:08:07.316Z,11.60
2023-05-18T05:10:34.247Z,11.70
2023-05-18T05:13:01.076Z,11.70
2023-05-18T05:15:28.204Z,11.80
2023-05-18T05:17:55.250Z,11.90
2023-05-18T05:20:22.364Z,12.00
2023-05-18T05:22:49.379Z,12.10
2023-05-18T05:25:22.186Z,12.30
2023-05-18T05:27:50.144Z,12.40
2023-05-18T05:30:19.889Z,12.50
2023-05-18T05:32:46.937Z,12.70
2023-05-18T05:35:13.900Z,12.70
2023-05-18T05:37:41.874Z,12.80
2023-05-18T05:40:10.024Z,12.90
2023-05-18T05:42:45.417Z,13.00
2023-05-18T05:45:12.969Z,13.00
2023-05-18T05:47:49.636Z,13.10
2023-05-18T05:50:18.260Z,13.10
2023-05-18T05:52:47.212Z,13.20
2023-05-18T05:55:14.936Z,13.30
2023-05-18T05:57:42.925Z,13.30
2023-05-18T06:00:11.727Z,13.40
2023-05-18T06:02:54.254Z,13.40
2023-05-18T06:05:42.922Z,13.40
2023-05-18T06:08:12.238Z,13.40
2023-05-18T06:10:40.708Z,13.50
2023-05-18T06:13:08.394Z,13.50
2023-05-18T06:15:43.437Z,13.70
2023-05-18T06:18:13.402Z,13.80
2023-05-18T06:20:40.650Z,13.80
2023-05-18T06:23:07.522Z,13.90
2023-05-18T06:26:10.288Z,14.00
2023-05-18T06:28:37.304Z,14.20
2023-05-18T06:31:33.362Z,14.20
2023-05-18T06:34:08.817Z,14.20
2023-05-18T06:36:35.866Z,14.30
2023-05-18T06:39:02.809Z,14.30
2023-05-18T06:41:30.010Z,14.40
2023-05-18T06:44:00.272Z,14.50
2023-05-18T06:46:35.074Z,14.60
2023-05-18T06:49:05.331Z,14.80
2023-05-18T06:51:32.307Z,14.90
2023-05-18T06:53:59.439Z,15.00
2023-05-18T06:56:26.526Z,15.00
2023-05-18T06:58:55.117Z,15.20
2023-05-18T07:01:22.387Z,15.30
2023-05-18T07:03:49.362Z,15.40
2023-05-18T07:06:17.388Z,15.50
2023-05-18T07:08:45.171Z,15.50
2023-05-18T07:11:12.050Z,15.70
2023-05-18T07:13:38.816Z,15.80
2023-05-18T07:16:06.311Z,15.90
2023-05-18T07:18:34.009Z,16.00
2023-05-18T07:21:01.114Z,16.00
2023-05-18T07:23:28.708Z,16.10
2023-05-18T07:25:55.540Z,16.10
2023-05-18T07:28:22.359Z,16.10
2023-05-18T07:30:49.277Z,16.10
2023-05-18T07:33:16.448Z,16.10
2023-05-18T07:35:43.322Z,16.10
2023-05-18T07:38:10.170Z,16.00
2023-05-18T07:40:37.017Z,16.00
2023-05-18T07:43:03.922Z,15.90
2023-05-18T07:45:31.794Z,15.90
2023-05-18T07:47:58.959Z,15.80
2023-05-18T07:50:26.515Z,15.80
2023-05-18T07:52:53.375Z,15.80
2023-05-18T07:55:20.191Z,15.90
2023-05-18T07:57:47.125Z,15.90
2023-05-18T08:00:14.511Z,16.00
2023-05-18T08:02:42.996Z,16.10
2023-05-18T08:05:10.959Z,16.20
2023-05-18T08:07:37.984Z,16.20
2023-05-18T08:10:05.528Z,16.40
2023-05-18T08:12:32.479Z,16.60
2023-05-18T08:14:59.548Z,16.80
2023-05-18T08:17:26.427Z,17.00
2023-05-18T08:19:53.967Z,17.30
2023-05-18T08:22:21.349Z,17.60
2023-05-18T08:24:48.409Z,17.80
2023-05-18T08:27:15.433Z,18.00
2023-05-18T08:29:42.274Z,18.20
2023-05-18T08:32:09.317Z,18.30
2023-05-18T08:34:36.808Z,18.50
2023-05-18T08:37:03.907Z,18.70
2023-05-18T08:39:32.057Z,18.90
2023-05-18T08:42:17.640Z,19.10
2023-05-18T08:44:58.617Z,19.30
2023-05-18T08:47:26.742Z,19.40
2023-05-18T08:49:56.478Z,19.30
2023-05-18T08:52:27.983Z,19.20
2023-05-18T08:54:56.682Z,19.20
2023-05-18T08:57:24.141Z,19.10
2023-05-18T08:59:52.999Z,19.20
2023-05-18T09:02:19.994Z,19.20
2023-05-18T09:04:48.232Z,19.20
2023-05-18T09:07:16.087Z,19.40
2023-05-18T09:09:44.152Z,19.60
2023-05-18T09:12:12.857Z,19.50
2023-05-18T09:14:42.278Z,19.50
2023-05-18T09:17:10.463Z,19.40
2023-05-18T09:19:37.315Z,19.40
2023-05-18T09:22:04.592Z,19.40
2023-05-18T09:24:31.434Z,19.50
2023-05-18T09:26:58.350Z,19.50
2023-05-18T09:29:28.004Z,19.70
2023-05-18T09:31:55.381Z,20.00
2023-05-18T09:34:22.751Z,20.30
2023-05-18T09:36:52.865Z,20.30
2023-05-18T09:39:19.750Z,20.20
2023-05-18T09:41:46.594Z,20.10
2023-05-18T09:44:13.570Z,20.20
2023-05-18T09:46:40.980Z,20.10
2023-05-18T09:49:08.360Z,20.20
2023-05-18T09:51:39.313Z,20.20
2023-05-18T09:54:09.792Z,20.10
2023-05-18T09:56:37.895Z,20.20
2023-05-18T09:59:13.222Z,20.30
2023-05-18T10:02:05.601Z,20.50
2023-05-18T10:04:37.671Z,20.90
2023-05-18T10:07:12.921Z,21.40
2023-05-18T10:09:41.547Z,21.70
2023-05-18T10:12:16.471Z,21.80
2023-05-18T10:14:44.946Z,22.00
2023-05-18T10:17:15.724Z,22.30
2023-05-18T10:19:44.887Z,22.30
2023-05-18T10:22:15.641Z,22.40
2023-05-18T10:24:45.022Z,22.30
2023-05-18T10:27:14.613Z,22.40
2023-05-18T10:29:42.087Z,22.70
2023-05-18T10:32:12.771Z,23.00
2023-05-18T10:34:41.802Z,23.40
2023-05-18T10:37:11.877Z,23.80
2023-05-18T10:39:40.421Z,24.20
2023-05-18T10:42:09.466Z,24.60
2023-05-18T10:44:36.590Z,24.70
2023-05-18T10:47:06.170Z,24.90
2023-05-18T10:49:33.914Z,25.30
2023-05-18T10:52:03.015Z,25.80
2023-05-18T10:54:30.337Z,26.30
2023-05-18T10:56:57.313Z,26.80
2023-05-18T10:59:24.318Z,27.30
2023-05-18T11:01:53.926Z,28.00
2023-05-18T11:04:27.325Z,28.60
2023-05-18T11:07:02.138Z,29.30
2023-05-18T11:09:29.963Z,29.90
2023-05-18T11:11:58.606Z,30.20
2023-05-18T11:14:32.542Z,30.50
2023-05-18T11:17:25.758Z,30.90
2023-05-18T11:20:07.960Z,31.40
2023-05-18T11:23:02.296Z,31.80
2023-05-18T11:25:29.131Z,32.10
2023-05-18T11:28:07.731Z,32.50
2023-05-18T11:30:34.786Z,32.60
2023-05-18T11:33:17.414Z,32.70
2023-05-18T11:36:09.108Z,32.80
2023-05-18T11:38:55.708Z,33.20
2023-05-18T11:41:39.053Z,33.40
2023-05-18T11:44:11.996Z,33.80
2023-05-18T11:46:56.247Z,34.20
2023-05-18T11:49:33.853Z,34.50
2023-05-18T11:52:27.241Z,34.50
2023-05-18T11:54:56.792Z,34.30
2023-05-18T11:57:33.590Z,34.60
2023-05-18T12:00:02.642Z,34.80
2023-05-18T12:02:43.938Z,34.90
2023-05-18T12:05:11.190Z,35.00
2023-05-18T12:07:39.068Z,35.20
2023-05-18T12:10:14.847Z,35.30
2023-05-18T12:12:42.863Z,35.30
2023-05-18T12:15:11.548Z,35.10
2023-05-18T12:17:48.754Z,34.90
2023-05-18T12:20:16.607Z,35.00
2023-05-18T12:22:45.412Z,35.10
2023-05-18T12:25:12.542Z,35.40
2023-05-18T12:27:40.781Z,35.00
2023-05-18T12:30:14.007Z,34.70
2023-05-18T12:32:48.828Z,34.70
2023-05-18T12:35:15.703Z,34.50
2023-05-18T12:37:46.720Z,34.00
2023-05-18T12:40:15.055Z,33.70
2023-05-18T12:42:55.559Z,33.20
2023-05-18T12:45:34.376Z,32.90
2023-05-18T12:48:09.491Z,32.60
2023-05-18T12:50:38.736Z,32.30
2023-05-18T12:53:05.699Z,32.20
2023-05-18T12:55:33.329Z,32.10
2023-05-18T12:58:12.924Z,31.80
2023-05-18T13:00:42.813Z,31.60
2023-05-18T13:03:15.394Z,31.50
2023-05-18T13:05:45.428Z,31.50
2023-05-18T13:08:19.015Z,31.80
2023-05-18T13:10:47.013Z,32.10
2023-05-18T13:13:16.735Z,32.30
2023-05-18T13:15:44.049Z,32.30
2023-05-18T13:18:12.033Z,32.10
2023-05-18T13:20:52.871Z,31.90
2023-05-18T13:23:26.410Z,31.60
2023-05-18T13:25:53.983Z,31.40
2023-05-18T13:28:22.509Z,31.30
2023-05-18T13:30:50.689Z,31.10
2023-05-18T13:33:19.258Z,30.80
2023-05-18T13:35:48.553Z,30.10
2023-05-18T13:38:15.846Z,29.60
2023-05-18T13:40:43.031Z,29.00
2023-05-18T13:43:12.023Z,28.40
2023-05-18T13:45:42.901Z,27.70
2023-05-18T13:48:10.706Z,27.10
2023-05-18T13:50:39.217Z,26.70
2023-05-18T13:53:06.719Z,26.30
2023-05-18T13:55:34.222Z,25.90
2023-05-18T13:58:01.265Z,25.50
2023-05-18T14:00:28.491Z,25.10
2023-05-18T14:02:56.486Z,24.80
2023-05-18T14:05:23.846Z,24.50
2023-05-18T14:07:54.036Z,24.30
2023-05-18T14:10:21.246Z,24.20
2023-05-18T14:12:48.704Z,24.10
2023-05-18T14:15:15.736Z,23.90
2023-05-18T14:17:43.260Z,23.80
2023-05-18T14:20:11.581Z,23.60
2023-05-18T14:22:38.836Z,23.40
2023-05-18T14:25:06.352Z,23.30
2023-05-18T14:27:33.255Z,23.10
2023-05-18T14:30:00.341Z,23.00
2023-05-18T14:32:27.338Z,22.90
2023-05-18T14:34:57.646Z,22.80
2023-05-18T14:37:24.515Z,22.70
2023-05-18T14:39:51.336Z,22.60
2023-05-18T14:42:18.134Z,22.60
2023-05-18T14:44:45.018Z,22.50
2023-05-18T14:47:11.857Z,22.50
2023-05-18T14:49:38.810Z,22.40
2023-05-18T14:52:06.139Z,22.40
2023-05-18T14:54:33.077Z,22.30
2023-05-18T14:56:59.945Z,22.30
2023-05-18T14:59:26.888Z,22.20
2023-05-18T15:01:53.857Z,22.20
2023-05-18T15:04:22.005Z,22.10
2023-05-18T15:06:49.892Z,22.10
2023-05-18T15:09:17.317Z,22.00
2023-05-18T15:11:44.301Z,21.90
2023-05-18T15:14:11.230Z,21.90
2023-05-18T15:16:38.709Z,21.80
2023-05-18T15:19:06.013Z,21.70
2023-05-18T15:21:33.049Z,21.70
2023-05-18T15:24:00.019Z,21.70
2023-05-18T15:26:27.572Z,21.70
2023-05-18T15:28:54.665Z,21.80
2023-05-18T15:31:21.581Z,21.80
2023-05-18T15:33:48.522Z,21.80
2023-05-18T15:36:16.054Z,21.70
2023-05-18T15:38:42.896Z,21.70
2023-05-18T15:41:09.717Z,21.60
2023-05-18T15:43:37.533Z,21.50
2023-05-18T15:46:05.138Z,21.50
2023-05-18T15:48:31.978Z,21.40
2023-05-18T15:50:58.787Z,21.50
2023-05-18T15:53:25.750Z,21.50
2023-05-18T15:55:57.500Z,21.50
2023-05-18T15:58:26.565Z,21.50
2023-05-18T16:00:53.839Z,21.50
2023-05-18T16:03:20.972Z,21.60
2023-05-18T16:05:47.903Z,21.50
2023-05-18T16:08:15.003Z,21.50
2023-05-18T16:10:41.860Z,21.40
2023-05-18T16:13:08.983Z,21.40
2023-05-18T16:15:36.079Z,21.40
2023-05-18T16:18:03.264Z,21.40
2023-05-18T16:20:30.514Z,21.40
2023-05-18T16:22:57.889Z,21.40
2023-05-18T16:25:25.067Z,21.40
2023-05-18T16:27:52.159Z,21.30
2023-05-18T16:30:18.961Z,21.40
2023-05-18T16:32:45.981Z,21.40
2023-05-18T16:35:12.879Z,21.40
2023-05-18T16:37:39.723Z,21.40
2023-05-18T16:40:07.269Z,21.50
2023-05-18T16:42:34.377Z,21.50
2023-05-18T16:45:01.359Z,21.40
2023-05-18T16:47:28.565Z,21.40
2023-05-18T16:49:55.582Z,21.40
2023-05-18T16:52:22.494Z,21.40
2023-05-18T16:54:49.363Z,21.30
2023-05-18T16:57:16.254Z,21.30
2023-05-18T16:59:43.205Z,21.30
2023-05-18T17:02:13.245Z,21.30
2023-05-18T17:04:44.690Z,21.20
2023-05-18T17:07:12.393Z,21.30
2023-05-18T17:09:41.465Z,21.20
2023-05-18T17:12:10.339Z,21.20
2023-05-18T17:14:37.750Z,21.20
2023-05-18T17:17:05.944Z,21.20
2023-05-18T17:19:35.022Z,21.20
2023-05-18T17:22:03.097Z,21.30
2023-05-18T17:24:30.186Z,21.30
2023-05-18T17:26:57.262Z,21.30
2023-05-18T17:29:24.186Z,21.30
2023-05-18T17:31:51.215Z,21.30
2023-05-18T17:34:18.088Z,21.30
2023-05-18T17:36:45.509Z,21.30
2023-05-18T17:39:12.683Z,21.30
2023-05-18T17:41:39.532Z,21.30
2023-05-18T17:44:06.910Z,21.30
2023-05-18T17:46:33.943Z,21.20
2023-05-18T17:49:04.913Z,21.20
2023-05-18T17:51:31.964Z,21.20
2023-05-18T17:53:58.901Z,21.20
2023-05-18T17:56:28.011Z,21.20
2023-05-18T17:58:54.854Z,21.20
2023-05-18T18:01:21.744Z,21.20
2023-05-18T18:03:48.869Z,21.10
2023-05-18T18:06:17.696Z,21.10
2023-05-18T18:08:45.088Z,21.10
2023-05-18T18:11:12.129Z,21.10
2023-05-18T18:13:38.959Z,21.10
2023-05-18T18:16:06.253Z,21.00
2023-05-18T18:18:36.057Z,21.00
2023-05-18T18:21:03.765Z,21.00
2023-05-18T18:23:30.642Z,20.90
2023-05-18T18:25:57.547Z,20.90
2023-05-18T18:28:24.709Z,20.80
2023-05-18T18:30:51.951Z,20.80
2023-05-18T18:33:20.349Z,20.70
2023-05-18T18:35:48.288Z,20.70
2023-05-18T18:38:15.114Z,20.70
2023-05-18T18:40:41.924Z,20.60
2023-05-18T18:43:08.808Z,20.60
2023-05-18T18:45:35.821Z,20.60
2023-05-18T18:48:03.151Z,20.50
2023-05-18T18:50:30.958Z,20.60
2023-05-18T18:52:57.957Z,20.50
2023-05-18T18:55:25.021Z,20.40
2023-05-18T18:57:53.012Z,20.40
2023-05-18T19:00:21.206Z,20.30
2023-05-18T19:02:48.132Z,20.30
2023-05-18T19:05:21.403Z,20.30
2023-05-18T19:07:49.882Z,20.20
2023-05-18T19:10:16.840Z,20.20
2023-05-18T19:12:43.799Z,20.10
2023-05-18T19:15:13.448Z,20.00
2023-05-18T19:17:41.478Z,20.00
2023-05-18T19:20:09.504Z,19.90
2023-05-18T19:22:36.476Z,19.90
2023-05-18T19:25:03.458Z,19.80
2023-05-18T19:27:30.772Z,19.80
2023-05-18T19:29:58.265Z,19.70
2023-05-18T19:32:26.460Z,19.70
2023-05-18T19:34:53.313Z,19.60
2023-05-18T19:37:20.169Z,19.50
2023-05-18T19:39:46.998Z,19.50
2023-05-18T19:42:13.947Z,19.50
2023-05-18T19:44:40.801Z,19.40
2023-05-18T19:47:07.666Z,19.30
2023-05-18T19:49:34.602Z,19.30
2023-05-18T19:52:01.457Z,19.20
2023-05-18T19:54:28.365Z,19.10
2023-05-18T19:56:55.741Z,19.10
2023-05-18T19:59:22.815Z,19.00
2023-05-18T20:01:51.104Z,19.00
2023-05-18T20:04:19.888Z,19.00
2023-05-18T20:06:46.879Z,18.90
2023-05-18T20:09:13.690Z,18.90
2023-05-18T20:11:40.547Z,18.80
2023-05-18T20:14:07.402Z,18.80
2023-05-18T20:16:36.522Z,18.70
2023-05-18T20:19:04.399Z,18.60
2023-05-18T20:21:31.986Z,18.60
2023-05-18T20:23:59.197Z,18.50
2023-05-18T20:26:28.848Z,18.40
2023-05-18T20:28:56.661Z,18.30
2023-05-18T20:31:23.884Z,18.20
2023-05-18T20:33:51.075Z,18.10
2023-05-18T20:36:18.016Z,18.10
2023-05-18T20:38:44.928Z,18.00
2023-05-18T20:41:11.786Z,17.90
2023-05-18T20:43:38.685Z,17.90
2023-05-18T20:46:05.849Z,17.90
2023-05-18T20:48:32.798Z,17.90
2023-05-18T20:50:59.657Z,17.80
2023-05-18T20:53:26.471Z,17.80
2023-05-18T20:55:54.196Z,17.70
2023-05-18T20:58:21.434Z,17.70
2023-05-18T21:00:49.622Z,17.70
2023-05-18T21:03:18.214Z,17.70
2023-05-18T21:05:45.390Z,17.70
2023-05-18T21:08:12.212Z,17.60
2023-05-18T21:10:39.090Z,17.60
2023-05-18T21:13:05.880Z,17.60
2023-05-18T21:15:36.582Z,17.60
2023-05-18T21:18:04.138Z,17.50
2023-05-18T21:20:32.043Z,17.50
2023-05-18T21:22:59.759Z,17.50
2023-05-18T21:25:26.640Z,17.50
2023-05-18T21:27:53.452Z,17.50
2023-05-18T21:30:20.254Z,17.50
2023-05-18T21:32:48.283Z,17.40
2023-05-18T21:35:15.552Z,17.40
2023-05-18T21:37:42.360Z,17.40
2023-05-18T21:40:09.717Z,17.30
2023-05-18T21:42:38.147Z,17.30
2023-05-18T21:45:05.470Z,17.20
2023-05-18T21:47:32.383Z,17.20
2023-05-18T21:49:59.251Z,17.10
2023-05-18T21:52:26.164Z,17.10
2023-05-18T21:54:53.050Z,17.10
2023-05-18T21:57:19.893Z,17.10
2023-05-18T21:59:46.803Z,17.00
2023-05-18T22:02:13.624Z,17.00
2023-05-18T22:04:40.511Z,16.90
2023-05-18T22:07:08.428Z,16.90
2023-05-18T22:09:35.322Z,16.80
2023-05-18T22:12:02.108Z,16.70
2023-05-18T22:14:30.935Z,16.80
2023-05-18T22:16:57.807Z,16.70
2023-05-18T22:19:24.806Z,16.70
2023-05-18T22:21:52.249Z,16.70
2023-05-18T22:24:19.212Z,16.60
2023-05-18T22:26:46.268Z,16.60
2023-05-18T22:29:13.084Z,16.50
2023-05-18T22:31:39.994Z,16.50
2023-05-18T22:34:06.904Z,16.50
2023-05-18T22:36:35.106Z,16.40
2023-05-18T22:39:01.912Z,16.40
2023-05-18T22:41:28.703Z,16.40
2023-05-18T22:43:55.503Z,16.30
2023-05-18T22:46:22.416Z,16.30
2023-05-18T22:48:49.322Z,16.30
2023-05-18T22:51:16.511Z,16.20
2023-05-18T22:53:43.350Z,16.20
2023-05-18T22:56:10.157Z,16.10
2023-05-18T22:58:36.952Z,16.00
2023-05-18T23:01:03.756Z,16.00
2023-05-18T23:03:30.599Z,16.00
2023-05-18T23:05:57.671Z,16.00
2023-05-18T23:08:24.487Z,15.90
2023-05-18T23:10:51.287Z,15.90
2023-05-18T23:13:19.630Z,15.90
2023-05-18T23:15:47.756Z,15.90
2023-05-18T23:18:15.433Z,15.90
2023-05-18T23:20:42.306Z,15.90
2023-05-18T23:23:09.145Z,15.90
2023-05-18T23:25:35.943Z,15.90
2023-05-18T23:28:02.762Z,15.80
2023-05-18T23:30:30.343Z,15.70
2023-05-18T23:32:57.695Z,15.70
2023-05-18T23:35:24.797Z,15.70
2023-05-18T23:37:53.573Z,15.70
2023-05-18T23:40:22.001Z,15.60
2023-05-18T23:42:49.017Z,15.60
2023-05-18T23:45:16.333Z,15.60
2023-05-18T23:47:43.494Z,15.60
2023-05-18T23:50:10.843Z,15.60
2023-05-18T23:52:39.242Z,15.50
2023-05-18T23:55:10.119Z,15.40
2023-05-18T23:57:37.307Z,15.40
